createdAt,value
2019-01-25T00:00:16.386Z,42.53
2019-01-25T00:02:44.826Z,44.50
2019-01-25T00:05:13.368Z,44.00
2019-01-25T00:07:41.769Z,43.03
2019-01-25T00:10:10.647Z,42.07
2019-01-25T00:12:39.058Z,43.67
2019-01-25T00:15:10.552Z,43.93
2019-01-25T00:17:38.963Z,44.97
2019-01-25T00:20:10.638Z,46.28
2019-01-25T00:22:39.162Z,42.87
2019-01-25T00:25:07.941Z,45.37
2019-01-25T00:27:36.396Z,46.10
2019-01-25T00:30:10.717Z,42.73
2019-01-25T00:32:39.122Z,43.50
2019-01-25T00:35:07.795Z,42.83
2019-01-25T00:37:36.201Z,43.73
2019-01-25T00:40:07.685Z,42.30
2019-01-25T00:42:36.134Z,44.13
2019-01-25T00:45:06.922Z,44.07
2019-01-25T00:47:35.367Z,42.33
2019-01-25T00:50:06.970Z,42.53
2019-01-25T00:52:35.509Z,43.83
2019-01-25T00:55:05.155Z,43.00
2019-01-25T00:57:33.593Z,43.87
2019-01-25T01:00:02.002Z,43.47
2019-01-25T01:02:30.413Z,44.00
2019-01-25T01:04:58.853Z,44.17
2019-01-25T01:07:27.258Z,42.40
2019-01-25T01:09:55.798Z,42.73
2019-01-25T01:12:24.229Z,45.93
2019-01-25T01:14:52.652Z,46.03
2019-01-25T01:17:21.078Z,43.30
2019-01-25T01:19:49.481Z,44.63
2019-01-25T01:22:17.894Z,44.90
2019-01-25T01:24:46.338Z,42.43
2019-01-25T01:27:14.741Z,43.63
2019-01-25T01:29:43.145Z,42.30
2019-01-25T01:32:11.593Z,43.47
2019-01-25T01:34:40.004Z,41.77
2019-01-25T01:37:08.418Z,41.70
2019-01-25T01:39:37.065Z,41.73
2019-01-25T01:42:05.535Z,42.50
2019-01-25T01:44:33.937Z,43.10
2019-01-25T01:47:02.391Z,43.10
2019-01-25T01:49:30.797Z,44.23
2019-01-25T01:51:59.229Z,45.20
2019-01-25T01:54:27.669Z,42.00
2019-01-25T01:56:56.082Z,43.23
2019-01-25T01:59:24.485Z,43.43
2019-01-25T02:01:53.297Z,44.53
2019-01-25T02:04:21.698Z,43.07
2019-01-25T02:06:50.118Z,43.40
2019-01-25T02:09:18.554Z,41.97
2019-01-25T02:11:46.959Z,43.03
2019-01-25T02:14:15.361Z,42.90
2019-01-25T02:16:43.791Z,43.50
2019-01-25T02:19:12.186Z,44.97
2019-01-25T02:21:40.623Z,44.67
2019-01-25T02:24:09.026Z,45.07
2019-01-25T02:26:37.425Z,42.07
2019-01-25T02:29:05.860Z,45.97
2019-01-25T02:31:34.260Z,43.23
2019-01-25T02:34:02.698Z,42.67
2019-01-25T02:36:31.096Z,43.47
2019-01-25T02:38:59.501Z,43.33
2019-01-25T02:41:27.932Z,42.53
2019-01-25T02:43:56.339Z,43.93
2019-01-25T02:46:24.744Z,43.70
2019-01-25T02:48:53.347Z,43.27
2019-01-25T02:51:21.794Z,42.43
2019-01-25T02:53:50.210Z,43.13
2019-01-25T02:56:18.629Z,42.57
2019-01-25T02:58:47.068Z,42.97
2019-01-25T03:01:15.551Z,42.67
2019-01-25T03:03:43.971Z,42.47
2019-01-25T03:06:12.431Z,42.97
2019-01-25T03:08:40.844Z,42.13
2019-01-25T03:11:09.256Z,41.77
2019-01-25T03:13:37.715Z,41.90
2019-01-25T03:16:06.155Z,41.40
2019-01-25T03:18:34.560Z,42.57
2019-01-25T03:21:02.993Z,42.07
2019-01-25T03:23:31.389Z,41.57
2019-01-25T03:25:59.914Z,43.20
2019-01-25T03:28:28.338Z,40.70
2019-01-25T03:30:56.772Z,42.13
2019-01-25T03:33:25.181Z,42.20
2019-01-25T03:35:53.630Z,41.10
2019-01-25T03:38:22.047Z,43.37
2019-01-25T03:40:54.954Z,43.53
2019-01-25T03:43:20.602Z,43.13
2019-01-25T03:45:49.013Z,42.97
2019-01-25T03:48:17.672Z,43.87
2019-01-25T03:50:46.093Z,42.60
2019-01-25T03:53:14.492Z,42.33
2019-01-25T03:55:42.934Z,43.70
2019-01-25T03:58:11.477Z,44.17
2019-01-25T04:00:39.893Z,43.13
2019-01-25T04:03:08.358Z,42.77
2019-01-25T04:05:36.772Z,42.63
2019-01-25T04:08:05.523Z,41.27
2019-01-25T04:10:33.957Z,41.93
2019-01-25T04:13:02.400Z,43.87
2019-01-25T04:15:32.251Z,43.10
2019-01-25T04:18:00.654Z,42.93
2019-01-25T04:20:29.743Z,41.60
2019-01-25T04:22:58.149Z,43.80
2019-01-25T04:25:26.814Z,42.80
2019-01-25T04:27:55.316Z,41.20
2019-01-25T04:30:28.685Z,43.40
2019-01-25T04:32:57.083Z,42.80
2019-01-25T04:35:25.739Z,42.90
2019-01-25T04:37:54.172Z,42.73
2019-01-25T04:40:22.585Z,43.53
2019-01-25T04:42:51.055Z,42.90
2019-01-25T04:45:21.790Z,43.57
2019-01-25T04:47:50.184Z,43.63
2019-01-25T04:50:21.034Z,43.33
2019-01-25T04:52:49.773Z,45.10
2019-01-25T04:55:28.878Z,43.97
2019-01-25T04:58:06.607Z,45.37
2019-01-25T05:00:35.093Z,44.57
2019-01-25T05:03:03.624Z,44.23
2019-01-25T05:05:32.121Z,42.60
2019-01-25T05:08:15.961Z,45.67
2019-01-25T05:10:45.072Z,44.53
2019-01-25T05:13:13.466Z,44.43
2019-01-25T05:15:41.868Z,45.07
2019-01-25T05:18:11.254Z,44.30
2019-01-25T05:20:39.832Z,46.73
2019-01-25T05:23:08.880Z,43.83
2019-01-25T05:25:37.672Z,44.27
2019-01-25T05:28:14.571Z,45.07
2019-01-25T05:30:51.769Z,43.77
2019-01-25T05:33:20.371Z,42.83
2019-01-25T05:35:48.912Z,43.97
2019-01-25T05:38:17.657Z,43.60
2019-01-25T05:40:46.072Z,46.07
2019-01-25T05:43:14.477Z,43.90
2019-01-25T05:45:46.417Z,44.20
2019-01-25T05:48:14.828Z,44.13
2019-01-25T05:50:43.238Z,44.83
2019-01-25T05:53:11.655Z,45.00
2019-01-25T05:55:40.340Z,44.43
2019-01-25T05:58:09.791Z,43.33
2019-01-25T06:00:45.287Z,44.93
2019-01-25T06:03:15.264Z,45.23
2019-01-25T06:05:44.110Z,46.00
2019-01-25T06:08:19.128Z,45.80
2019-01-25T06:10:47.913Z,45.37
2019-01-25T06:13:16.315Z,43.73
2019-01-25T06:15:44.728Z,43.53
2019-01-25T06:18:13.157Z,44.87
2019-01-25T06:20:41.569Z,46.33
2019-01-25T06:23:09.979Z,46.30
2019-01-25T06:25:38.410Z,45.00
2019-01-25T06:28:06.888Z,46.00
2019-01-25T06:30:35.294Z,45.53
2019-01-25T06:33:04.059Z,45.07
2019-01-25T06:35:32.453Z,44.90
2019-01-25T06:38:00.863Z,46.33
2019-01-25T06:40:29.302Z,46.23
2019-01-25T06:42:57.713Z,44.87
2019-01-25T06:45:26.119Z,46.47
2019-01-25T06:47:54.558Z,44.87
2019-01-25T06:50:22.966Z,44.30
2019-01-25T06:52:51.365Z,44.10
2019-01-25T06:55:19.806Z,44.43
2019-01-25T06:58:05.429Z,42.50
2019-01-25T07:00:38.351Z,44.70
2019-01-25T07:03:06.829Z,44.13
2019-01-25T07:05:35.238Z,44.67
2019-01-25T07:08:03.934Z,44.20
2019-01-25T07:10:32.343Z,42.60
2019-01-25T07:13:00.848Z,44.93
2019-01-25T07:15:29.313Z,45.93
2019-01-25T07:17:57.723Z,43.80
2019-01-25T07:20:26.149Z,46.23
2019-01-25T07:22:54.597Z,46.73
2019-01-25T07:25:23.004Z,43.03
2019-01-25T07:27:51.417Z,44.23
2019-01-25T07:30:19.845Z,43.03
2019-01-25T07:32:48.288Z,43.53
2019-01-25T07:35:16.747Z,44.87
2019-01-25T07:37:45.184Z,43.07
2019-01-25T07:40:13.599Z,43.57
2019-01-25T07:42:42.013Z,44.90
2019-01-25T07:45:12.987Z,46.20
2019-01-25T07:47:41.533Z,44.77
2019-01-25T07:50:13.018Z,45.47
2019-01-25T07:52:41.788Z,45.80
2019-01-25T07:55:11.856Z,45.60
2019-01-25T07:57:40.491Z,44.43
2019-01-25T08:00:14.061Z,44.30
2019-01-25T08:02:42.477Z,45.03
2019-01-25T08:05:11.516Z,45.17
2019-01-25T08:07:40.182Z,43.70
2019-01-25T08:10:14.848Z,44.40
2019-01-25T08:12:43.251Z,42.93
2019-01-25T08:15:14.905Z,44.40
2019-01-25T08:17:43.300Z,45.00
2019-01-25T08:20:13.076Z,42.17
2019-01-25T08:22:41.657Z,44.30
2019-01-25T08:25:10.232Z,43.70
2019-01-25T08:27:38.838Z,45.23
2019-01-25T08:30:16.363Z,44.77
2019-01-25T08:32:44.825Z,41.50
2019-01-25T08:35:14.171Z,43.43
2019-01-25T08:37:42.871Z,43.13
2019-01-25T08:40:13.432Z,44.23
2019-01-25T08:42:41.877Z,43.10
2019-01-25T08:45:13.473Z,43.07
2019-01-25T08:47:42.751Z,43.73
2019-01-25T08:50:16.819Z,44.50
2019-01-25T08:52:45.266Z,43.73
2019-01-25T08:55:14.028Z,44.23
2019-01-25T08:57:42.470Z,44.13
2019-01-25T09:00:16.538Z,44.77
2019-01-25T09:02:44.944Z,44.50
2019-01-25T09:05:13.600Z,43.90
2019-01-25T09:07:42.075Z,43.10
2019-01-25T09:10:13.701Z,43.00
2019-01-25T09:12:42.121Z,44.03
2019-01-25T09:15:13.508Z,44.20
2019-01-25T09:17:42.054Z,44.13
2019-01-25T09:20:16.445Z,42.50
2019-01-25T09:22:44.851Z,42.23
2019-01-25T09:25:13.317Z,42.67
2019-01-25T09:27:41.715Z,42.67
2019-01-25T09:30:15.564Z,41.10
2019-01-25T09:32:43.989Z,43.37
2019-01-25T09:35:12.721Z,44.40
2019-01-25T09:37:41.340Z,44.23
2019-01-25T09:40:12.955Z,42.73
2019-01-25T09:42:41.536Z,43.73
2019-01-25T09:45:11.687Z,41.73
2019-01-25T09:47:40.155Z,42.27
2019-01-25T09:50:18.139Z,41.23
2019-01-25T09:52:47.714Z,42.20
2019-01-25T09:55:24.185Z,42.77
2019-01-25T09:57:51.482Z,43.47
2019-01-25T10:00:50.279Z,42.97
2019-01-25T10:03:18.718Z,43.97
2019-01-25T10:05:47.138Z,44.33
2019-01-25T10:08:15.566Z,44.77
2019-01-25T10:10:44.334Z,44.93
2019-01-25T10:13:12.728Z,43.53
2019-01-25T10:15:41.149Z,45.00
2019-01-25T10:18:09.879Z,43.23
2019-01-25T10:20:38.290Z,43.80
2019-01-25T10:23:06.706Z,43.33
2019-01-25T10:25:35.184Z,43.77
2019-01-25T10:28:03.594Z,43.63
2019-01-25T10:30:31.993Z,45.00
2019-01-25T10:33:00.636Z,44.03
2019-01-25T10:35:29.058Z,44.37
2019-01-25T10:37:57.489Z,46.90
2019-01-25T10:40:26.401Z,43.83
2019-01-25T10:42:54.797Z,45.37
2019-01-25T10:45:37.911Z,44.77
2019-01-25T10:48:07.361Z,43.17
2019-01-25T10:50:35.844Z,43.33
2019-01-25T10:53:05.730Z,41.90
2019-01-25T10:55:34.312Z,43.70
2019-01-25T10:58:02.782Z,44.07
2019-01-25T11:00:31.243Z,43.10
2019-01-25T11:02:59.648Z,43.63
2019-01-25T11:05:31.115Z,43.20
2019-01-25T11:07:59.609Z,44.20
2019-01-25T11:10:28.095Z,41.83
2019-01-25T11:13:01.171Z,43.07
2019-01-25T11:15:26.939Z,41.97
2019-01-25T11:17:55.347Z,41.90
2019-01-25T11:20:25.515Z,42.60
2019-01-25T11:22:54.170Z,42.87
2019-01-25T11:25:28.106Z,42.77
2019-01-25T11:27:56.596Z,41.27
2019-01-25T11:30:25.137Z,42.57
2019-01-25T11:32:53.547Z,41.43
2019-01-25T11:35:22.323Z,41.00
2019-01-25T11:37:50.742Z,41.10
2019-01-25T11:40:27.811Z,41.30
2019-01-25T11:42:56.531Z,40.40
2019-01-25T11:45:25.126Z,43.80
2019-01-25T11:47:54.234Z,41.47
2019-01-25T11:50:22.638Z,39.83
2019-01-25T11:52:51.492Z,38.53
2019-01-25T11:55:20.227Z,40.27
2019-01-25T11:57:48.623Z,39.03
2019-01-25T12:00:22.523Z,38.77
2019-01-25T12:02:51.593Z,39.37
2019-01-25T12:05:25.032Z,38.30
2019-01-25T12:07:54.290Z,38.00
2019-01-25T12:10:28.652Z,38.97
2019-01-25T12:12:57.188Z,38.67
2019-01-25T12:15:25.644Z,38.33
2019-01-25T12:17:54.867Z,36.30
2019-01-25T12:20:27.822Z,37.40
2019-01-25T12:22:56.537Z,36.70
2019-01-25T12:25:25.394Z,36.50
2019-01-25T12:27:53.890Z,36.37
2019-01-25T12:30:25.241Z,40.17
2019-01-25T12:32:55.092Z,37.90
2019-01-25T12:35:24.279Z,36.23
2019-01-25T12:37:52.982Z,35.67
2019-01-25T12:40:21.780Z,34.90
2019-01-25T12:42:50.266Z,34.57
2019-01-25T12:45:27.358Z,32.53
2019-01-25T12:47:55.842Z,35.27
2019-01-25T12:50:36.626Z,34.53
2019-01-25T12:53:07.894Z,32.53
2019-01-25T12:55:36.391Z,31.27
2019-01-25T12:58:05.601Z,30.63
2019-01-25T13:00:34.070Z,28.63
2019-01-25T13:03:02.485Z,28.90
2019-01-25T13:05:32.274Z,29.60
2019-01-25T13:08:00.872Z,27.33
2019-01-25T13:10:29.391Z,27.23
2019-01-25T13:12:57.973Z,25.80
2019-01-25T13:15:26.572Z,25.73
2019-01-25T13:17:55.322Z,22.43
2019-01-25T13:20:26.195Z,21.73
2019-01-25T13:22:55.232Z,21.17
2019-01-25T13:25:24.000Z,16.97
2019-01-25T13:27:52.602Z,12.03
2019-01-25T13:30:31.671Z,9.33
2019-01-25T13:33:00.931Z,8.33
2019-01-25T13:35:29.497Z,8.97
2019-01-25T13:37:58.044Z,9.00
2019-01-25T13:40:27.695Z,8.93
2019-01-25T13:42:56.532Z,8.70
2019-01-25T13:45:25.016Z,8.17
2019-01-25T13:47:53.854Z,8.40
2019-01-25T13:50:29.725Z,8.23
2019-01-25T13:52:58.548Z,8.67
2019-01-25T13:55:27.586Z,8.67
2019-01-25T13:57:56.328Z,8.27
2019-01-25T14:00:27.272Z,8.30
2019-01-25T14:02:56.009Z,8.40
2019-01-25T14:05:26.324Z,8.40
2019-01-25T14:07:55.316Z,8.40
2019-01-25T14:10:35.160Z,8.07
2019-01-25T14:13:04.521Z,7.07
2019-01-25T14:15:33.462Z,6.93
2019-01-25T14:18:02.146Z,7.97
2019-01-25T14:20:32.366Z,6.77
2019-01-25T14:23:01.154Z,6.30
2019-01-25T14:25:32.029Z,6.53
2019-01-25T14:28:01.905Z,6.57
2019-01-25T14:30:35.519Z,6.40
2019-01-25T14:33:04.793Z,6.83
2019-01-25T14:35:33.198Z,6.40
2019-01-25T14:38:01.622Z,6.53
2019-01-25T14:40:30.237Z,6.30
2019-01-25T14:42:58.630Z,6.87
2019-01-25T14:45:27.851Z,6.73
2019-01-25T14:47:56.418Z,6.80
2019-01-25T14:50:30.428Z,6.67
2019-01-25T14:52:59.364Z,7.10
2019-01-25T14:55:27.942Z,6.93
2019-01-25T14:57:56.418Z,6.53
2019-01-25T15:00:25.825Z,5.60
2019-01-25T15:02:54.469Z,6.77
2019-01-25T15:05:22.863Z,6.43
2019-01-25T15:07:51.260Z,6.43
2019-01-25T15:10:21.643Z,6.70
2019-01-25T15:12:50.673Z,6.57
2019-01-25T15:15:19.079Z,6.23
2019-01-25T15:17:47.913Z,6.60
2019-01-25T15:20:21.893Z,6.43
2019-01-25T15:22:50.371Z,5.77
2019-01-25T15:25:19.542Z,6.67
2019-01-25T15:27:47.948Z,6.43
2019-01-25T15:30:21.487Z,6.50
2019-01-25T15:32:49.986Z,9.00
2019-01-25T15:35:19.969Z,7.63
2019-01-25T15:37:48.432Z,6.60
2019-01-25T15:40:18.974Z,6.80
2019-01-25T15:42:47.769Z,7.00
2019-01-25T15:45:18.399Z,6.20
2019-01-25T15:47:46.858Z,6.47
2019-01-25T15:50:23.736Z,7.13
2019-01-25T15:52:52.134Z,6.57
2019-01-25T15:55:20.859Z,6.90
2019-01-25T15:57:49.635Z,6.97
2019-01-25T16:00:23.274Z,7.43
2019-01-25T16:02:51.770Z,6.47
2019-01-25T16:05:21.727Z,7.03
2019-01-25T16:07:50.194Z,7.60
2019-01-25T16:10:22.790Z,7.47
2019-01-25T16:12:51.780Z,7.73
2019-01-25T16:15:22.324Z,7.73
2019-01-25T16:17:50.999Z,7.63
2019-01-25T16:20:19.571Z,7.83
2019-01-25T16:22:49.507Z,8.10
2019-01-25T16:25:20.708Z,8.67
2019-01-25T16:27:49.101Z,7.93
2019-01-25T16:30:20.151Z,8.07
2019-01-25T16:32:48.582Z,8.33
2019-01-25T16:35:17.060Z,8.33
2019-01-25T16:37:45.610Z,9.27
2019-01-25T16:40:16.296Z,9.57
2019-01-25T16:42:44.690Z,9.27
2019-01-25T16:45:16.202Z,8.63
2019-01-25T16:47:44.651Z,9.10
2019-01-25T16:50:13.454Z,8.90
2019-01-25T16:52:41.859Z,8.77
2019-01-25T16:55:12.970Z,9.50
2019-01-25T16:57:41.364Z,8.97
2019-01-25T17:00:27.602Z,9.80
2019-01-25T17:02:56.081Z,9.67
2019-01-25T17:05:24.615Z,9.50
2019-01-25T17:07:53.067Z,9.80
2019-01-25T17:10:21.482Z,10.67
2019-01-25T17:12:49.911Z,10.10
2019-01-25T17:15:18.426Z,10.67
2019-01-25T17:17:46.813Z,10.60
2019-01-25T17:20:21.234Z,10.70
2019-01-25T17:22:47.908Z,10.93
2019-01-25T17:25:16.322Z,11.00
2019-01-25T17:27:44.905Z,11.77
2019-01-25T17:30:22.045Z,11.37
2019-01-25T17:32:51.281Z,12.70
2019-01-25T17:35:19.709Z,11.57
2019-01-25T17:37:48.115Z,12.80
2019-01-25T17:40:19.100Z,12.57
2019-01-25T17:42:47.775Z,13.13
2019-01-25T17:45:16.268Z,13.40
2019-01-25T17:47:44.691Z,13.47
2019-01-25T17:50:14.794Z,14.77
2019-01-25T17:52:43.576Z,14.97
2019-01-25T17:55:14.563Z,15.93
2019-01-25T17:57:43.036Z,14.20
2019-01-25T18:00:14.468Z,15.27
2019-01-25T18:02:44.425Z,14.87
2019-01-25T18:05:13.040Z,15.73
2019-01-25T18:07:41.443Z,15.80
2019-01-25T18:10:13.496Z,16.93
2019-01-25T18:12:42.033Z,17.60
2019-01-25T18:15:13.441Z,16.83
2019-01-25T18:17:41.867Z,17.20
2019-01-25T18:20:16.238Z,16.10
2019-01-25T18:22:44.702Z,15.37
2019-01-25T18:25:16.301Z,15.47
2019-01-25T18:27:48.157Z,15.47
2019-01-25T18:30:29.064Z,14.87
2019-01-25T18:32:57.775Z,15.40
2019-01-25T18:35:26.180Z,14.50
2019-01-25T18:37:54.830Z,15.27
2019-01-25T18:40:23.285Z,16.10
2019-01-25T18:42:51.685Z,15.83
2019-01-25T18:45:20.085Z,14.50
2019-01-25T18:47:49.915Z,15.10
2019-01-25T18:50:18.335Z,14.40
2019-01-25T18:52:46.749Z,14.50
2019-01-25T18:55:25.778Z,14.53
2019-01-25T18:57:54.219Z,14.53
2019-01-25T19:00:22.808Z,14.33
2019-01-25T19:02:51.467Z,15.13
2019-01-25T19:05:20.132Z,15.80
2019-01-25T19:07:48.591Z,14.60
2019-01-25T19:10:25.420Z,15.70
2019-01-25T19:12:53.836Z,15.50
2019-01-25T19:15:30.191Z,14.50
2019-01-25T19:17:58.647Z,13.53
2019-01-25T19:20:27.134Z,14.50
2019-01-25T19:22:55.524Z,14.57
2019-01-25T19:25:23.970Z,14.20
2019-01-25T19:27:52.375Z,14.93
2019-01-25T19:30:26.315Z,14.40
2019-01-25T19:32:54.827Z,14.93
2019-01-25T19:35:23.293Z,14.63
2019-01-25T19:37:51.698Z,15.53
2019-01-25T19:40:31.938Z,15.80
2019-01-25T19:43:00.413Z,14.53
2019-01-25T19:45:28.833Z,15.37
2019-01-25T19:47:57.809Z,14.97
2019-01-25T19:50:27.754Z,16.40
2019-01-25T19:52:56.157Z,15.17
2019-01-25T19:55:32.618Z,15.90
2019-01-25T19:58:03.326Z,15.87
2019-01-25T20:00:37.821Z,16.70
2019-01-25T20:03:07.273Z,16.83
2019-01-25T20:05:36.703Z,15.87
2019-01-25T20:08:05.807Z,15.57
2019-01-25T20:10:34.459Z,14.90
2019-01-25T20:13:02.930Z,16.23
2019-01-25T20:15:31.613Z,15.27
2019-01-25T20:18:00.063Z,14.93
2019-01-25T20:20:30.906Z,15.80
2019-01-25T20:22:59.717Z,15.77
2019-01-25T20:25:28.184Z,15.70
2019-01-25T20:27:56.764Z,15.27
2019-01-25T20:30:28.424Z,14.87
2019-01-25T20:32:57.076Z,16.03
2019-01-25T20:35:28.195Z,17.13
2019-01-25T20:37:56.642Z,17.87
2019-01-25T20:40:25.099Z,16.17
2019-01-25T20:42:53.522Z,16.80
2019-01-25T20:45:27.365Z,16.30
2019-01-25T20:47:55.089Z,16.43
2019-01-25T20:50:25.891Z,16.63
2019-01-25T20:52:55.277Z,15.53
2019-01-25T20:55:24.027Z,16.07
2019-01-25T20:57:52.587Z,14.77
2019-01-25T21:00:32.644Z,16.57
2019-01-25T21:03:01.317Z,15.40
2019-01-25T21:05:30.071Z,14.93
2019-01-25T21:07:59.478Z,14.70
2019-01-25T21:10:27.939Z,15.20
2019-01-25T21:12:56.586Z,14.40
2019-01-25T21:15:34.764Z,14.33
2019-01-25T21:17:57.486Z,14.30
2019-01-25T21:20:28.531Z,14.20
2019-01-25T21:22:56.970Z,13.90
2019-01-25T21:25:25.388Z,14.40
2019-01-25T21:27:53.898Z,12.90
2019-01-25T21:30:25.053Z,13.00
2019-01-25T21:32:53.543Z,12.10
2019-01-25T21:35:22.032Z,12.63
2019-01-25T21:37:50.816Z,11.07
2019-01-25T21:40:21.682Z,12.00
2019-01-25T21:42:50.071Z,11.80
2019-01-25T21:45:23.662Z,11.43
2019-01-25T21:47:52.137Z,12.10
2019-01-25T21:50:23.191Z,11.10
2019-01-25T21:52:51.808Z,10.73
2019-01-25T21:55:20.262Z,11.13
2019-01-25T21:57:48.662Z,11.33
2019-01-25T22:00:22.575Z,10.30
2019-01-25T22:02:51.150Z,10.13
2019-01-25T22:05:20.150Z,10.07
2019-01-25T22:07:48.759Z,9.77
2019-01-25T22:10:25.582Z,9.73
2019-01-25T22:12:54.261Z,10.17
2019-01-25T22:15:22.658Z,9.60
2019-01-25T22:17:51.071Z,9.67
2019-01-25T22:20:24.711Z,9.20
2019-01-25T22:22:53.276Z,9.03
2019-01-25T22:25:21.823Z,9.13
2019-01-25T22:27:51.712Z,8.80
2019-01-25T22:30:22.187Z,9.20
2019-01-25T22:32:50.915Z,8.00
2019-01-25T22:35:19.624Z,9.07
2019-01-25T22:37:48.403Z,9.30
2019-01-25T22:40:19.623Z,17.27
2019-01-25T22:42:48.060Z,10.80
2019-01-25T22:45:19.115Z,8.70
2019-01-25T22:47:48.085Z,11.37
2019-01-25T22:50:24.113Z,9.60
2019-01-25T22:52:52.547Z,8.90
2019-01-25T22:55:22.302Z,11.13
2019-01-25T22:57:51.259Z,15.00
2019-01-25T23:00:43.817Z,10.80
2019-01-25T23:03:12.249Z,8.13
2019-01-25T23:06:00.298Z,9.10
2019-01-25T23:08:28.738Z,7.80
2019-01-25T23:10:57.130Z,6.17
2019-01-25T23:13:25.538Z,7.63
2019-01-25T23:15:54.008Z,5.97
2019-01-25T23:18:22.397Z,5.90
2019-01-25T23:20:50.830Z,6.10
2019-01-25T23:23:19.434Z,6.20
2019-01-25T23:25:47.791Z,5.83
2019-01-25T23:28:16.224Z,5.80
2019-01-25T23:30:44.666Z,7.53
2019-01-25T23:33:13.085Z,6.30
2019-01-25T23:35:41.479Z,5.80
2019-01-25T23:38:10.131Z,5.63
2019-01-25T23:40:38.525Z,6.23
2019-01-25T23:43:06.929Z,5.80
2019-01-25T23:45:35.527Z,5.77
2019-01-25T23:48:04.261Z,6.60
2019-01-25T23:50:32.658Z,5.10
2019-01-25T23:53:01.362Z,5.17
2019-01-25T23:55:29.846Z,4.80
2019-01-25T23:57:58.237Z,5.57
